sensor_id;sensor_type;location;lat;lon;timestamp;pressure;altitude;pressure_sealevel;temperature;humidity
78354;BME280;67629;46.040;18.232;2023-06-14T00:01:15;99388.22;;;13.75;72.42
78354;BME280;67629;46.040;18.232;2023-06-14T00:01:46;99395.66;;;13.74;72.92
78354;BME280;67629;46.040;18.232;2023-06-14T00:02:17;99396.44;;;13.75;72.39
78354;BME280;67629;46.040;18.232;2023-06-14T00:02:48;99381.63;;;13.70;73.47
78354;BME280;67629;46.040;18.232;2023-06-14T00:03:19;99395.91;;;13.73;73.29
78354;BME280;67629;46.040;18.232;2023-06-14T00:03:50;99383.28;;;13.72;73.32
78354;BME280;67629;46.040;18.232;2023-06-14T00:04:21;99393.44;;;13.71;73.36
78354;BME280;67629;46.040;18.232;2023-06-14T00:04:52;99395.34;;;13.70;73.65
78354;BME280;67629;46.040;18.232;2023-06-14T00:05:23;99390.13;;;13.69;73.18
78354;BME280;67629;46.040;18.232;2023-06-14T00:05:54;99390.94;;;13.69;73.34
78354;BME280;67629;46.040;18.232;2023-06-14T00:06:25;99393.16;;;13.73;73.48
78354;BME280;67629;46.040;18.232;2023-06-14T00:06:56;99387.94;;;13.71;73.06
78354;BME280;67629;46.040;18.232;2023-06-14T00:07:37;99393.16;;;13.67;73.70
78354;BME280;67629;46.040;18.232;2023-06-14T00:08:09;99395.06;;;13.72;73.45
78354;BME280;67629;46.040;18.232;2023-06-14T00:08:46;99392.06;;;13.74;73.21
78354;BME280;67629;46.040;18.232;2023-06-14T00:09:17;99395.34;;;13.65;74.16
78354;BME280;67629;46.040;18.232;2023-06-14T00:09:48;99389.88;;;13.70;73.90
78354;BME280;67629;46.040;18.232;2023-06-14T00:10:19;99392.31;;;13.72;72.64
78354;BME280;67629;46.040;18.232;2023-06-14T00:10:50;99390.97;;;13.75;72.21
78354;BME280;67629;46.040;18.232;2023-06-14T00:11:23;99390.16;;;13.74;72.88
78354;BME280;67629;46.040;18.232;2023-06-14T00:11:57;99389.59;;;13.72;72.53
78354;BME280;67629;46.040;18.232;2023-06-14T00:12:31;99394.81;;;13.68;73.89
78354;BME280;67629;46.040;18.232;2023-06-14T00:13:02;99390.13;;;13.69;73.82
78354;BME280;67629;46.040;18.232;2023-06-14T00:13:34;99392.06;;;13.74;72.78
78354;BME280;67629;46.040;18.232;2023-06-14T00:14:05;99396.19;;;13.76;72.54
78354;BME280;67629;46.040;18.232;2023-06-14T00:14:37;99392.06;;;13.74;72.98
78354;BME280;67629;46.040;18.232;2023-06-14T00:15:08;99396.19;;;13.71;73.80
78354;BME280;67629;46.040;18.232;2023-06-14T00:15:42;99393.16;;;13.67;73.80
78354;BME280;67629;46.040;18.232;2023-06-14T00:16:13;99392.06;;;13.68;73.43
78354;BME280;67629;46.040;18.232;2023-06-14T00:16:45;99394.22;;;13.66;73.69
78354;BME280;67629;46.040;18.232;2023-06-14T00:17:15;99389.03;;;13.70;73.34
78354;BME280;67629;46.040;18.232;2023-06-14T00:17:47;99395.59;;;13.69;72.98
78354;BME280;67629;46.040;18.232;2023-06-14T00:18:17;99389.31;;;13.74;73.17
78354;BME280;67629;46.040;18.232;2023-06-14T00:18:48;99387.41;;;13.74;72.41
78354;BME280;67629;46.040;18.232;2023-06-14T00:19:19;99390.97;;;13.75;72.33
78354;BME280;67629;46.040;18.232;2023-06-14T00:19:51;99389.63;;;13.77;72.05
78354;BME280;67629;46.040;18.232;2023-06-14T00:20:23;99397.56;;;13.79;72.19
78354;BME280;67629;46.040;18.232;2023-06-14T00:20:53;99394.28;;;13.82;71.91
78354;BME280;67629;46.040;18.232;2023-06-14T00:21:24;99386.59;;;13.84;71.99
78354;BME280;67629;46.040;18.232;2023-06-14T00:21:55;99392.91;;;13.84;71.51
78354;BME280;67629;46.040;18.232;2023-06-14T00:22:27;99391.53;;;13.82;71.35
78354;BME280;67629;46.040;18.232;2023-06-14T00:23:01;99384.69;;;13.79;71.85
78354;BME280;67629;46.040;18.232;2023-06-14T00:23:32;99383.59;;;13.80;71.83
78354;BME280;67629;46.040;18.232;2023-06-14T00:24:07;99391.84;;;13.85;71.67
78354;BME280;67629;46.040;18.232;2023-06-14T00:24:38;99396.78;;;13.88;71.23
78354;BME280;67629;46.040;18.232;2023-06-14T00:25:13;99388.53;;;13.88;71.13
78354;BME280;67629;46.040;18.232;2023-06-14T00:25:59;99391.53;;;13.87;71.50
78354;BME280;67629;46.040;18.232;2023-06-14T00:26:45;99391.00;;;13.80;72.31
78354;BME280;67629;46.040;18.232;2023-06-14T00:27:31;99390.16;;;13.74;72.58
78354;BME280;67629;46.040;18.232;2023-06-14T00:28:17;99388.19;;;13.64;73.77
78354;BME280;67629;46.040;18.232;2023-06-14T00:29:03;99381.84;;;13.54;73.88
78354;BME280;67629;46.040;18.232;2023-06-14T00:29:48;99392.28;;;13.57;73.71
78354;BME280;67629;46.040;18.232;2023-06-14T00:30:35;99385.72;;;13.63;72.70
78354;BME280;67629;46.040;18.232;2023-06-14T00:31:21;99392.31;;;13.67;72.46
78354;BME280;67629;46.040;18.232;2023-06-14T00:32:07;99388.75;;;13.66;72.58
78354;BME280;67629;46.040;18.232;2023-06-14T00:32:53;99381.34;;;13.67;72.68
78354;BME280;67629;46.040;18.232;2023-06-14T00:33:43;99380.25;;;13.68;73.04
78354;BME280;67629;46.040;18.232;2023-06-14T00:34:29;99392.59;;;13.70;73.05
78354;BME280;67629;46.040;18.232;2023-06-14T00:35:15;99390.94;;;13.64;72.86
78354;BME280;67629;46.040;18.232;2023-06-14T00:35:46;99384.06;;;13.62;73.29
78354;BME280;67629;46.040;18.232;2023-06-14T00:36:35;99390.09;;;13.64;73.23
78354;BME280;67629;46.040;18.232;2023-06-14T00:37:06;99388.75;;;13.66;73.18
78354;BME280;67629;46.040;18.232;2023-06-14T00:37:38;99383.00;;;13.63;72.96
78354;BME280;67629;46.040;18.232;2023-06-14T00:38:24;99390.09;;;13.64;72.44
78354;BME280;67629;46.040;18.232;2023-06-14T00:38:55;99389.03;;;13.65;72.76
78354;BME280;67629;46.040;18.232;2023-06-14T00:39:44;99387.91;;;13.66;72.15
78354;BME280;67629;46.040;18.232;2023-06-14T00:40:15;99378.84;;;13.60;71.96
78354;BME280;67629;46.040;18.232;2023-06-14T00:41:01;99379.38;;;13.57;72.28
78354;BME280;67629;46.040;18.232;2023-06-14T00:41:47;99392.84;;;13.64;72.33
78354;BME280;67629;46.040;18.232;2023-06-14T00:42:27;99379.94;;;13.59;72.48
78354;BME280;67629;46.040;18.232;2023-06-14T00:42:58;99390.09;;;13.64;72.29
78354;BME280;67629;46.040;18.232;2023-06-14T00:43:44;99387.38;;;13.64;72.28
78354;BME280;67629;46.040;18.232;2023-06-14T00:44:30;99386.81;;;13.62;72.22
78354;BME280;67629;46.040;18.232;2023-06-14T00:45:01;99378.59;;;13.67;71.64
78354;BME280;67629;46.040;18.232;2023-06-14T00:45:31;99384.09;;;13.67;71.37
78354;BME280;67629;46.040;18.232;2023-06-14T00:46:06;99385.44;;;13.64;71.15
78354;BME280;67629;46.040;18.232;2023-06-14T00:46:36;99388.75;;;13.66;71.31
78354;BME280;67629;46.040;18.232;2023-06-14T00:47:07;99385.75;;;13.68;70.75
78354;BME280;67629;46.040;18.232;2023-06-14T00:47:41;99390.66;;;13.66;71.34
78354;BME280;67629;46.040;18.232;2023-06-14T00:48:14;99384.38;;;13.65;71.54
78354;BME280;67629;46.040;18.232;2023-06-14T00:48:45;99387.38;;;13.64;71.84
78354;BME280;67629;46.040;18.232;2023-06-14T00:49:19;99387.13;;;13.65;71.70
78354;BME280;67629;46.040;18.232;2023-06-14T00:49:51;99384.63;;;13.64;71.74
78354;BME280;67629;46.040;18.232;2023-06-14T00:50:23;99386.00;;;13.61;73.04
78354;BME280;67629;46.040;18.232;2023-06-14T00:50:55;99389.00;;;13.60;73.60
78354;BME280;67629;46.040;18.232;2023-06-14T00:51:26;99388.44;;;13.58;73.72
78354;BME280;67629;46.040;18.232;2023-06-14T00:51:57;99384.59;;;13.59;73.53
78354;BME280;67629;46.040;18.232;2023-06-14T00:52:28;99375.25;;;13.55;73.67
78354;BME280;67629;46.040;18.232;2023-06-14T00:53:00;99380.75;;;13.55;73.73
78354;BME280;67629;46.040;18.232;2023-06-14T00:53:31;99385.97;;;13.56;73.51
78354;BME280;67629;46.040;18.232;2023-06-14T00:54:09;99373.31;;;13.50;73.85
78354;BME280;67629;46.040;18.232;2023-06-14T00:54:41;99380.19;;;13.53;74.06
78354;BME280;67629;46.040;18.232;2023-06-14T00:55:12;99376.31;;;13.49;74.38
78354;BME280;67629;46.040;18.232;2023-06-14T00:55:43;99376.31;;;13.49;74.16
78354;BME280;67629;46.040;18.232;2023-06-14T00:56:17;99380.72;;;13.50;73.52
78354;BME280;67629;46.040;18.232;2023-06-14T00:56:55;99376.91;;;13.46;73.78
78354;BME280;67629;46.040;18.232;2023-06-14T00:57:26;99382.09;;;13.47;74.05
78354;BME280;67629;46.040;18.232;2023-06-14T00:57:57;99375.78;;;13.47;73.44
78354;BME280;67629;46.040;18.232;2023-06-14T00:58:28;99373.31;;;13.50;72.53
78354;BME280;67629;46.040;18.232;2023-06-14T00:59:00;99375.53;;;13.48;71.86
78354;BME280;67629;46.040;18.232;2023-06-14T00:59:30;99373.34;;;13.55;70.74
78354;BME280;67629;46.040;18.232;2023-06-14T01:00:01;99380.19;;;13.58;71.39
78354;BME280;67629;46.040;18.232;2023-06-14T01:00:32;99377.75;;;13.61;71.68
78354;BME280;67629;46.040;18.232;2023-06-14T01:01:03;99371.19;;;13.62;70.95
78354;BME280;67629;46.040;18.232;2023-06-14T01:04:02;99376.94;;;13.66;70.54
78354;BME280;67629;46.040;18.232;2023-06-14T01:04:33;99374.75;;;13.68;69.93
78354;BME280;67629;46.040;18.232;2023-06-14T01:05:05;99374.47;;;13.69;69.81
78354;BME280;67629;46.040;18.232;2023-06-14T01:05:37;99374.75;;;13.68;70.07
78354;BME280;67629;46.040;18.232;2023-06-14T01:06:14;99375.06;;;13.72;70.09
78354;BME280;67629;46.040;18.232;2023-06-14T01:08:14;99371.19;;;13.73;69.61
78354;BME280;67629;46.040;18.232;2023-06-14T01:08:57;99375.91;;;13.77;69.23
78354;BME280;67629;46.040;18.232;2023-06-14T01:10:52;99375.06;;;13.72;69.70
78354;BME280;67629;46.040;18.232;2023-06-14T01:11:28;99369.81;;;13.75;68.96
78354;BME280;67629;46.040;18.232;2023-06-14T01:12:24;99370.94;;;13.79;68.73
78354;BME280;67629;46.040;18.232;2023-06-14T01:13:05;99369.81;;;13.75;69.38
78354;BME280;67629;46.040;18.232;2023-06-14T01:13:42;99371.75;;;13.69;68.89
78354;BME280;67629;46.040;18.232;2023-06-14T01:14:17;99370.94;;;13.74;68.07
78354;BME280;67629;46.040;18.232;2023-06-14T01:14:49;99373.94;;;13.78;67.96
78354;BME280;67629;46.040;18.232;2023-06-14T01:15:26;99365.75;;;13.83;67.21
78354;BME280;67629;46.040;18.232;2023-06-14T01:15:59;99378.34;;;13.84;67.81
78354;BME280;67629;46.040;18.232;2023-06-14T01:16:31;99373.41;;;13.81;68.10
78354;BME280;67629;46.040;18.232;2023-06-14T01:17:03;99363.78;;;13.78;68.35
78354;BME280;67629;46.040;18.232;2023-06-14T01:17:36;99372.88;;;13.79;68.17
78354;BME280;67629;46.040;18.232;2023-06-14T01:18:14;99374.25;;;13.81;68.14
78354;BME280;67629;46.040;18.232;2023-06-14T01:18:52;99367.13;;;13.80;68.25
78354;BME280;67629;46.040;18.232;2023-06-14T01:19:27;99380.28;;;13.78;69.07
78354;BME280;67629;46.040;18.232;2023-06-14T01:20:01;99371.50;;;13.76;69.06
78354;BME280;67629;46.040;18.232;2023-06-14T01:25:47;99367.06;;;13.70;67.44
78354;BME280;67629;46.040;18.232;2023-06-14T01:26:23;99365.72;;;13.73;67.83
78354;BME280;67629;46.040;18.232;2023-06-14T01:26:55;99362.72;;;13.74;67.65
78354;BME280;67629;46.040;18.232;2023-06-14T01:27:28;99364.88;;;13.72;67.75
78354;BME280;67629;46.040;18.232;2023-06-14T01:28:04;99360.22;;;13.73;67.78
78354;BME280;67629;46.040;18.232;2023-06-14T01:28:42;99372.03;;;13.73;68.10
78354;BME280;67629;46.040;18.232;2023-06-14T01:29:23;99365.72;;;13.73;67.72
78354;BME280;67629;46.040;18.232;2023-06-14T01:29:56;99369.28;;;13.73;67.44
78354;BME280;67629;46.040;18.232;2023-06-14T01:30:29;99366.00;;;13.71;68.31
78354;BME280;67629;46.040;18.232;2023-06-14T01:31:02;99361.59;;;13.70;68.29
78354;BME280;67629;46.040;18.232;2023-06-14T01:31:36;99359.38;;;13.72;67.70
78354;BME280;67629;46.040;18.232;2023-06-14T01:32:11;99364.06;;;13.72;67.78
78354;BME280;67629;46.040;18.232;2023-06-14T01:32:43;99359.38;;;13.72;67.85
78354;BME280;67629;46.040;18.232;2023-06-14T01:33:18;99361.03;;;13.73;67.68
78354;BME280;67629;46.040;18.232;2023-06-14T01:33:50;99364.88;;;13.72;67.87
78354;BME280;67629;46.040;18.232;2023-06-14T01:34:26;99361.03;;;13.73;68.03
78354;BME280;67629;46.040;18.232;2023-06-14T01:34:57;99365.44;;;13.74;68.17
78354;BME280;67629;46.040;18.232;2023-06-14T01:35:28;99358.84;;;13.75;67.99
78354;BME280;67629;46.040;18.232;2023-06-14T01:36:02;99366.53;;;13.73;68.02
78354;BME280;67629;46.040;18.232;2023-06-14T01:36:36;99360.50;;;13.71;67.95
78354;BME280;67629;46.040;18.232;2023-06-14T01:37:11;99361.28;;;13.66;68.75
78354;BME280;67629;46.040;18.232;2023-06-14T01:37:43;99364.31;;;13.65;69.04
78354;BME280;67629;46.040;18.232;2023-06-14T01:38:17;99364.03;;;13.61;69.07
78354;BME280;67629;46.040;18.232;2023-06-14T01:38:50;99358.25;;;13.58;69.77
78354;BME280;67629;46.040;18.232;2023-06-14T01:39:22;99371.13;;;13.52;70.29
78354;BME280;67629;46.040;18.232;2023-06-14T01:39:54;99359.88;;;13.49;70.61
78354;BME280;67629;46.040;18.232;2023-06-14T01:40:26;99364.56;;;13.48;70.33
78354;BME280;67629;46.040;18.232;2023-06-14T01:41:03;99360.97;;;13.53;70.53
78354;BME280;67629;46.040;18.232;2023-06-14T01:41:35;99358.25;;;13.53;70.05
78354;BME280;67629;46.040;18.232;2023-06-14T01:42:06;99357.41;;;13.52;69.89
78354;BME280;67629;46.040;18.232;2023-06-14T01:42:38;99364.00;;;13.51;69.55
78354;BME280;67629;46.040;18.232;2023-06-14T01:43:11;99360.44;;;13.51;70.04
78354;BME280;67629;46.040;18.232;2023-06-14T01:43:42;99360.16;;;13.52;70.67
78354;BME280;67629;46.040;18.232;2023-06-14T01:44:15;99357.41;;;13.47;70.27
78354;BME280;67629;46.040;18.232;2023-06-14T01:44:48;99357.94;;;13.44;70.93
78354;BME280;67629;46.040;18.232;2023-06-14T01:45:20;99359.31;;;13.42;71.10
78354;BME280;67629;46.040;18.232;2023-06-14T01:45:53;99357.94;;;13.39;70.94
78354;BME280;67629;46.040;18.232;2023-06-14T01:46:25;99359.03;;;13.43;70.83
78354;BME280;67629;46.040;18.232;2023-06-14T01:46:56;99355.50;;;13.48;70.74
78354;BME280;67629;46.040;18.232;2023-06-14T01:47:27;99358.78;;;13.45;71.09
78354;BME280;67629;46.040;18.232;2023-06-14T01:47:59;99363.97;;;13.41;71.88
78354;BME280;67629;46.040;18.232;2023-06-14T01:48:30;99359.00;;;13.38;71.92
78354;BME280;67629;46.040;18.232;2023-06-14T01:49:02;99356.56;;;13.37;72.02
78354;BME280;67629;46.040;18.232;2023-06-14T01:49:35;99361.75;;;13.38;71.75
78354;BME280;67629;46.040;18.232;2023-06-14T01:50:06;99359.28;;;13.37;71.95
78354;BME280;67629;46.040;18.232;2023-06-14T01:50:37;99365.03;;;13.40;71.42
78354;BME280;67629;46.040;18.232;2023-06-14T01:51:08;99364.78;;;13.42;71.44
78354;BME280;67629;46.040;18.232;2023-06-14T01:51:38;99358.75;;;13.40;71.75
78354;BME280;67629;46.040;18.232;2023-06-14T01:52:10;99367.25;;;13.43;71.30
78354;BME280;67629;46.040;18.232;2023-06-14T01:52:41;99357.63;;;13.41;71.21
78354;BME280;67629;46.040;18.232;2023-06-14T01:53:12;99360.13;;;13.37;71.33
78354;BME280;67629;46.040;18.232;2023-06-14T01:53:42;99352.69;;;13.38;71.33
78354;BME280;67629;46.040;18.232;2023-06-14T01:54:13;99358.47;;;13.36;71.90
78354;BME280;67629;46.040;18.232;2023-06-14T01:54:44;99354.03;;;13.30;72.57
78354;BME280;67629;46.040;18.232;2023-06-14T01:55:15;99361.97;;;13.27;72.66
78354;BME280;67629;46.040;18.232;2023-06-14T01:55:48;99364.72;;;13.22;73.07
78354;BME280;67629;46.040;18.232;2023-06-14T01:56:19;99360.84;;;13.18;73.53
78354;BME280;67629;46.040;18.232;2023-06-14T01:56:50;99361.13;;;13.21;72.22
78354;BME280;67629;46.040;18.232;2023-06-14T01:57:22;99355.13;;;13.24;72.02
78354;BME280;67629;46.040;18.232;2023-06-14T02:02:20;99364.47;;;13.33;70.16
78354;BME280;67629;46.040;18.232;2023-06-14T02:02:51;99362.00;;;13.32;70.29
78354;BME280;67629;46.040;18.232;2023-06-14T02:03:22;99360.66;;;13.34;69.66
78354;BME280;67629;46.040;18.232;2023-06-14T02:03:53;99359.81;;;13.34;69.92
78354;BME280;67629;46.040;18.232;2023-06-14T02:04:24;99365.03;;;13.35;70.23
78354;BME280;67629;46.040;18.232;2023-06-14T02:04:55;99362.81;;;13.32;69.76
78354;BME280;67629;46.040;18.232;2023-06-14T02:05:27;99369.13;;;13.28;70.49
78354;BME280;67629;46.040;18.232;2023-06-14T02:05:58;99358.16;;;13.28;70.77
78354;BME280;67629;46.040;18.232;2023-06-14T02:06:29;99364.47;;;13.28;70.70
78354;BME280;67629;46.040;18.232;2023-06-14T02:07:00;99361.72;;;13.28;70.66
78354;BME280;67629;46.040;18.232;2023-06-14T02:07:30;99371.31;;;13.26;70.69
78354;BME280;67629;46.040;18.232;2023-06-14T02:08:01;99364.16;;;13.25;70.57
78354;BME280;67629;46.040;18.232;2023-06-14T02:08:33;99367.47;;;13.27;70.46
78354;BME280;67629;46.040;18.232;2023-06-14T02:09:03;99369.94;;;13.28;70.67
78354;BME280;67629;46.040;18.232;2023-06-14T02:09:34;99366.38;;;13.28;70.82
78354;BME280;67629;46.040;18.232;2023-06-14T02:10:07;99367.47;;;13.27;70.72
78354;BME280;67629;46.040;18.232;2023-06-14T02:10:37;99364.41;;;13.23;71.54
78354;BME280;67629;46.040;18.232;2023-06-14T02:11:08;99361.97;;;13.22;71.97
78354;BME280;67629;46.040;18.232;2023-06-14T02:14:19;99373.75;;;13.17;70.97
78354;BME280;67629;46.040;18.232;2023-06-14T02:14:52;99371.00;;;13.17;70.37
78354;BME280;67629;46.040;18.232;2023-06-14T02:15:24;99367.34;;;13.06;72.60
78354;BME280;67629;46.040;18.232;2023-06-14T02:15:57;99371.13;;;13.00;73.14
78354;BME280;67629;46.040;18.232;2023-06-14T02:16:30;99373.31;;;12.98;73.66
78354;BME280;67629;46.040;18.232;2023-06-14T02:17:00;99371.91;;;12.91;74.32
78354;BME280;67629;46.040;18.232;2023-06-14T02:17:31;99369.72;;;12.93;73.51
78354;BME280;67629;46.040;18.232;2023-06-14T02:18:03;99371.13;;;12.95;74.00
78354;BME280;67629;46.040;18.232;2023-06-14T02:18:34;99373.59;;;12.97;73.01
78354;BME280;67629;46.040;18.232;2023-06-14T02:19:08;99368.66;;;12.99;72.17
78354;BME280;67629;46.040;18.232;2023-06-14T02:19:39;99369.19;;;12.91;73.78
78354;BME280;67629;46.040;18.232;2023-06-14T02:20:10;99369.19;;;12.91;73.58
78354;BME280;67629;46.040;18.232;2023-06-14T02:20:42;99366.13;;;12.87;74.24
78354;BME280;67629;46.040;18.232;2023-06-14T02:21:12;99375.72;;;12.85;74.45
78354;BME280;67629;46.040;18.232;2023-06-14T02:21:44;99368.28;;;12.80;74.92
78354;BME280;67629;46.040;18.232;2023-06-14T02:22:15;99368.53;;;12.74;75.27
78354;BME280;67629;46.040;18.232;2023-06-14T02:22:45;99373.72;;;12.75;74.84
78354;BME280;67629;46.040;18.232;2023-06-14T02:23:16;99368.56;;;12.84;72.49
78354;BME280;67629;46.040;18.232;2023-06-14T02:23:47;99370.00;;;12.91;72.00
78354;BME280;67629;46.040;18.232;2023-06-14T02:24:18;99373.31;;;12.93;72.01
78354;BME280;67629;46.040;18.232;2023-06-14T02:24:49;99375.50;;;12.96;71.91
78354;BME280;67629;46.040;18.232;2023-06-14T02:25:20;99365.38;;;12.97;71.75
78354;BME280;67629;46.040;18.232;2023-06-14T02:25:52;99369.44;;;12.94;73.14
78354;BME280;67629;46.040;18.232;2023-06-14T02:26:23;99372.47;;;12.93;72.41
78354;BME280;67629;46.040;18.232;2023-06-14T02:26:54;99371.91;;;12.91;72.82
78354;BME280;67629;46.040;18.232;2023-06-14T02:27:25;99370.56;;;12.93;72.27
78354;BME280;67629;46.040;18.232;2023-06-14T02:27:56;99368.91;;;12.92;72.49
78354;BME280;67629;46.040;18.232;2023-06-14T02:28:26;99374.13;;;12.94;72.48
78354;BME280;67629;46.040;18.232;2023-06-14T02:28:57;99366.19;;;12.97;72.06
78354;BME280;67629;46.040;18.232;2023-06-14T02:29:28;99360.69;;;12.97;72.13
78354;BME280;67629;46.040;18.232;2023-06-14T02:29:58;99369.50;;;12.99;71.66
78354;BME280;67629;46.040;18.232;2023-06-14T02:30:29;99370.06;;;13.01;71.67
78354;BME280;67629;46.040;18.232;2023-06-14T02:31:01;99366.22;;;13.02;71.83
78354;BME280;67629;46.040;18.232;2023-06-14T02:31:32;99366.47;;;13.01;71.88
78354;BME280;67629;46.040;18.232;2023-06-14T02:32:04;99369.22;;;13.01;72.52
78354;BME280;67629;46.040;18.232;2023-06-14T02:32:50;99369.75;;;12.98;72.09
78354;BME280;67629;46.040;18.232;2023-06-14T02:33:39;99370.88;;;13.02;71.88
78354;BME280;67629;46.040;18.232;2023-06-14T02:34:10;99375.00;;;13.04;72.06
78354;BME280;67629;46.040;18.232;2023-06-14T02:34:41;99380.75;;;13.03;71.96
78354;BME280;67629;46.040;18.232;2023-06-14T02:35:27;99370.03;;;12.96;73.26
78354;BME280;67629;46.040;18.232;2023-06-14T02:36:13;99370.88;;;12.97;72.57
78354;BME280;67629;46.040;18.232;2023-06-14T02:37:00;99372.25;;;12.99;71.91
78354;BME280;67629;46.040;18.232;2023-06-14T02:37:48;99364.03;;;12.99;72.12
78354;BME280;67629;46.040;18.232;2023-06-14T02:38:34;99370.06;;;13.01;72.48
78354;BME280;67629;46.040;18.232;2023-06-14T02:39:19;99368.13;;;13.02;72.04
78354;BME280;67629;46.040;18.232;2023-06-14T02:40:06;99370.34;;;13.00;72.74
78354;BME280;67629;46.040;18.232;2023-06-14T02:40:54;99377.75;;;13.04;71.70
78354;BME280;67629;46.040;18.232;2023-06-14T02:41:25;99370.34;;;13.05;72.09
78354;BME280;67629;46.040;18.232;2023-06-14T02:41:56;99376.97;;;13.09;71.86
78354;BME280;67629;46.040;18.232;2023-06-14T02:42:27;99373.66;;;13.07;71.69
78354;BME280;67629;46.040;18.232;2023-06-14T02:42:57;99370.69;;;13.08;71.60
78354;BME280;67629;46.040;18.232;2023-06-14T02:43:29;99370.06;;;13.06;71.59
78354;BME280;67629;46.040;18.232;2023-06-14T02:44:00;99370.06;;;13.06;71.33
78354;BME280;67629;46.040;18.232;2023-06-14T02:44:30;99374.22;;;13.09;71.43
78354;BME280;67629;46.040;18.232;2023-06-14T02:45:02;99370.69;;;13.08;70.43
78354;BME280;67629;46.040;18.232;2023-06-14T02:45:34;99373.97;;;13.10;69.89
78354;BME280;67629;46.040;18.232;2023-06-14T02:46:05;99368.50;;;13.10;69.85
78354;BME280;67629;46.040;18.232;2023-06-14T02:46:36;99369.59;;;13.14;69.93
78354;BME280;67629;46.040;18.232;2023-06-14T02:47:07;99367.13;;;13.13;70.20
78354;BME280;67629;46.040;18.232;2023-06-14T02:47:37;99367.97;;;13.13;69.61
78354;BME280;67629;46.040;18.232;2023-06-14T02:48:08;99365.22;;;13.13;69.23
78354;BME280;67629;46.040;18.232;2023-06-14T02:48:40;99368.78;;;13.14;69.42
78354;BME280;67629;46.040;18.232;2023-06-14T02:49:11;99364.69;;;13.17;69.25
78354;BME280;67629;46.040;18.232;2023-06-14T02:49:42;99367.16;;;13.18;69.16
78354;BME280;67629;46.040;18.232;2023-06-14T02:50:13;99369.06;;;13.18;69.04
78354;BME280;67629;46.040;18.232;2023-06-14T02:50:44;99367.97;;;13.19;68.74
78354;BME280;67629;46.040;18.232;2023-06-14T02:51:15;99371.28;;;13.21;69.06
78354;BME280;67629;46.040;18.232;2023-06-14T02:51:45;99366.06;;;13.19;68.82
78354;BME280;67629;46.040;18.232;2023-06-14T02:52:17;99370.75;;;13.24;68.85
78354;BME280;67629;46.040;18.232;2023-06-14T02:52:48;99369.91;;;13.23;68.68
78354;BME280;67629;46.040;18.232;2023-06-14T02:53:18;99375.16;;;13.25;68.33
78354;BME280;67629;46.040;18.232;2023-06-14T02:53:49;99373.47;;;13.24;68.56
78354;BME280;67629;46.040;18.232;2023-06-14T02:54:20;99374.06;;;13.26;68.40
78354;BME280;67629;46.040;18.232;2023-06-14T02:54:51;99375.69;;;13.27;68.35
78354;BME280;67629;46.040;18.232;2023-06-14T02:55:22;99375.97;;;13.25;68.09
78354;BME280;67629;46.040;18.232;2023-06-14T02:55:53;99372.94;;;13.27;67.99
78354;BME280;67629;46.040;18.232;2023-06-14T02:56:25;99371.88;;;13.28;67.81
78354;BME280;67629;46.040;18.232;2023-06-14T02:56:56;99372.41;;;13.25;67.97
78354;BME280;67629;46.040;18.232;2023-06-14T02:57:27;99374.06;;;13.26;68.28
78354;BME280;67629;46.040;18.232;2023-06-14T02:58:28;99368.06;;;13.34;67.86
78354;BME280;67629;46.040;18.232;2023-06-14T02:58:59;99374.63;;;13.33;67.44
78354;BME280;67629;46.040;18.232;2023-06-14T02:59:30;99372.44;;;13.35;67.47
78354;BME280;67629;46.040;18.232;2023-06-14T03:00:01;99369.69;;;13.35;67.63
78354;BME280;67629;46.040;18.232;2023-06-14T03:00:32;99366.94;;;13.35;67.34
78354;BME280;67629;46.040;18.232;2023-06-14T03:01:04;99365.59;;;13.37;67.38
78354;BME280;67629;46.040;18.232;2023-06-14T03:01:36;99368.06;;;13.39;67.58
78354;BME280;67629;46.040;18.232;2023-06-14T03:02:09;99376.31;;;13.39;67.80
78354;BME280;67629;46.040;18.232;2023-06-14T03:02:41;99370.81;;;13.39;67.44
78354;BME280;67629;46.040;18.232;2023-06-14T03:03:13;99368.59;;;13.36;67.75
78354;BME280;67629;46.040;18.232;2023-06-14T03:03:46;99373.56;;;13.39;68.36
78354;BME280;67629;46.040;18.232;2023-06-14T03:04:17;99371.09;;;13.37;68.25
78354;BME280;67629;46.040;18.232;2023-06-14T03:04:48;99370.25;;;13.37;68.20
78354;BME280;67629;46.040;18.232;2023-06-14T03:05:19;99374.09;;;13.36;68.28
78354;BME280;67629;46.040;18.232;2023-06-14T03:05:54;99366.16;;;13.34;67.91
78354;BME280;67629;46.040;18.232;2023-06-14T03:06:25;99364.78;;;13.37;67.59
78354;BME280;67629;46.040;18.232;2023-06-14T03:06:55;99370.53;;;13.35;68.31
78354;BME280;67629;46.040;18.232;2023-06-14T03:07:27;99378.19;;;13.33;68.40
78354;BME280;67629;46.040;18.232;2023-06-14T03:08:02;99368.31;;;13.32;68.98
78354;BME280;67629;46.040;18.232;2023-06-14T03:08:33;99370.50;;;13.30;68.90
78354;BME280;67629;46.040;18.232;2023-06-14T03:09:08;99372.94;;;13.27;69.17
78354;BME280;67629;46.040;18.232;2023-06-14T03:09:39;99370.50;;;13.30;69.03
78354;BME280;67629;46.040;18.232;2023-06-14T03:10:11;99375.72;;;13.32;67.94
78354;BME280;67629;46.040;18.232;2023-06-14T03:10:43;99365.31;;;13.34;67.92
78354;BME280;67629;46.040;18.232;2023-06-14T03:11:17;99368.06;;;13.34;68.26
78354;BME280;67629;46.040;18.232;2023-06-14T03:11:50;99367.53;;;13.37;68.18
78354;BME280;67629;46.040;18.232;2023-06-14T03:12:22;99369.72;;;13.40;67.50
78354;BME280;67629;46.040;18.232;2023-06-14T03:12:54;99365.88;;;13.41;67.37
78354;BME280;67629;46.040;18.232;2023-06-14T03:13:25;99368.91;;;13.44;67.35
78354;BME280;67629;46.040;18.232;2023-06-14T03:13:56;99371.66;;;13.44;67.32
78354;BME280;67629;46.040;18.232;2023-06-14T03:14:27;99374.41;;;13.44;67.12